Time;durP1;ratioP1;P1;durP2;ratioP2;P2;SDS_P1;SDS_P2;PMS_P1;PMS_P2;Temp;Humidity;BMP_temperature;BMP_pressure;BME280_temperature;BME280_humidity;BME280_pressure;Samples;Min_cycle;Max_cycle;Signal;HPM_P1;HPM_P2
2023/12/14 00:00:33;;;;;;;26.37;17.53;;;7.20;99.90;;;;;;4956107;28;38338;-80
2023/12/14 00:02:59;;;;;;;21.17;15.87;;;7.20;99.90;;;;;;4949982;28;37567;-80
2023/12/14 00:05:25;;;;;;;22.47;16.33;;;7.20;99.90;;;;;;4954070;28;38116;-80
2023/12/14 00:07:51;;;;;;;22.90;16.47;;;7.20;99.90;;;;;;4964315;28;40086;-80
2023/12/14 00:10:20;;;;;;;24.13;17.43;;;7.20;99.90;;;;;;4954591;28;37153;-80
2023/12/14 00:12:46;;;;;;;24.23;16.50;;;7.20;99.90;;;;;;4964723;28;36940;-81
2023/12/14 00:15:12;;;;;;;24.63;16.47;;;7.20;99.90;;;;;;4963448;28;37788;-81
2023/12/14 00:17:38;;;;;;;22.17;16.17;;;7.20;99.90;;;;;;4968688;28;39299;-80
2023/12/14 00:20:05;;;;;;;21.33;15.70;;;7.10;99.90;;;;;;4946531;28;37377;-81
2023/12/14 00:22:31;;;;;;;20.13;14.77;;;7.10;99.90;;;;;;4962439;28;36401;-80
2023/12/14 00:24:58;;;;;;;22.10;16.17;;;7.10;99.90;;;;;;4958541;28;37715;-81
2023/12/14 00:27:24;;;;;;;21.17;15.10;;;7.10;99.90;;;;;;4969961;28;38650;-81
2023/12/14 00:29:51;;;;;;;18.20;15.03;;;7.10;99.90;;;;;;4951006;28;38746;-80
2023/12/14 00:32:17;;;;;;;21.57;15.50;;;7.10;99.90;;;;;;4943904;28;36464;-80
2023/12/14 00:34:43;;;;;;;23.27;15.27;;;7.10;99.90;;;;;;4978872;28;40643;-80
2023/12/14 00:37:11;;;;;;;20.60;15.37;;;7.10;99.90;;;;;;4956823;28;37786;-81
2023/12/14 00:39:38;;;;;;;20.00;15.27;;;7.00;99.90;;;;;;4948610;28;38123;-80
2023/12/14 00:42:04;;;;;;;16.97;13.57;;;7.00;99.90;;;;;;4958608;28;37725;-80
2023/12/14 00:44:30;;;;;;;15.20;12.63;;;7.00;99.90;;;;;;4952976;28;37389;-80
2023/12/14 00:47:00;;;;;;;16.63;12.07;;;7.00;99.90;;;;;;4949492;28;37820;-80
2023/12/14 00:49:28;;;;;;;16.50;12.70;;;7.00;99.90;;;;;;4950234;28;38630;-80
2023/12/14 00:51:54;;;;;;;17.60;13.03;;;7.00;99.90;;;;;;4941665;28;36422;-81
2023/12/14 00:54:20;;;;;;;18.30;14.40;;;7.10;99.90;;;;;;4941090;28;36233;-80
2023/12/14 00:56:46;;;;;;;19.27;15.40;;;7.10;99.90;;;;;;4966208;28;38063;-81
2023/12/14 00:59:12;;;;;;;19.13;15.13;;;7.10;99.90;;;;;;4947989;28;40007;-80
2023/12/14 01:01:39;;;;;;;18.90;15.30;;;7.10;99.90;;;;;;4950019;28;37666;-81
2023/12/14 01:04:08;;;;;;;22.17;15.70;;;7.10;99.90;;;;;;4938529;28;39851;-81
2023/12/14 01:06:34;;;;;;;19.60;15.43;;;7.10;99.90;;;;;;4943875;28;37846;-81
2023/12/14 01:09:09;;;;;;;22.13;16.03;;;7.10;99.90;;;;;;4958531;28;38440;-81
2023/12/14 01:11:35;;;;;;;21.13;14.90;;;7.10;99.90;;;;;;4958866;28;49075;-80
2023/12/14 01:14:01;;;;;;;21.33;14.57;;;7.10;99.90;;;;;;4944382;28;37635;-80
2023/12/14 01:16:28;;;;;;;20.27;15.23;;;7.10;99.90;;;;;;4952969;28;40038;-80
2023/12/14 01:18:54;;;;;;;24.47;16.40;;;7.00;99.90;;;;;;4935266;28;37460;-80
2023/12/14 01:21:20;;;;;;;22.47;16.67;;;7.00;99.90;;;;;;4937472;28;36506;-80
2023/12/14 01:23:46;;;;;;;17.53;14.27;;;6.90;99.90;;;;;;4932697;28;38090;-80
2023/12/14 01:26:12;;;;;;;21.80;15.80;;;7.00;99.90;;;;;;4948882;28;37427;-80
2023/12/14 01:28:38;;;;;;;20.80;15.00;;;6.90;99.90;;;;;;4936548;28;36999;-80
2023/12/14 01:31:04;;;;;;;21.13;15.13;;;7.00;99.90;;;;;;4935984;28;36424;-80
2023/12/14 01:33:30;;;;;;;20.93;15.40;;;7.00;99.90;;;;;;4950024;28;38677;-80
2023/12/14 01:35:56;;;;;;;18.60;14.10;;;6.90;99.90;;;;;;4932798;28;38822;-82
2023/12/14 01:38:22;;;;;;;19.70;14.53;;;6.90;99.90;;;;;;4937633;28;37666;-80
2023/12/14 01:40:48;;;;;;;19.00;14.63;;;7.00;99.90;;;;;;4945518;28;38158;-80
2023/12/14 01:43:17;;;;;;;17.80;13.03;;;7.00;99.90;;;;;;4937491;28;37794;-79
2023/12/14 01:45:43;;;;;;;18.13;14.10;;;7.00;99.90;;;;;;4935504;28;37625;-82
2023/12/14 01:48:09;;;;;;;19.57;12.63;;;7.00;99.90;;;;;;4933075;28;37765;-82
2023/12/14 01:50:35;;;;;;;22.77;14.20;;;7.00;99.90;;;;;;4938579;28;36545;-80
2023/12/14 01:53:02;;;;;;;21.60;14.40;;;7.00;99.90;;;;;;4935439;28;38469;-80
2023/12/14 01:55:28;;;;;;;19.53;14.80;;;6.90;99.90;;;;;;4945896;28;38745;-80
2023/12/14 01:57:54;;;;;;;17.33;14.30;;;6.90;99.90;;;;;;4946545;28;39041;-82
2023/12/14 02:02:59;;;;;;;20.20;14.60;;;7.00;99.90;;;;;;5504500;23;20055;-83
2023/12/14 02:05:42;;;;;;;23.43;15.53;;;7.00;99.90;;;;;;4962511;28;40110;-81
2023/12/14 02:08:09;;;;;;;27.17;15.40;;;7.00;99.90;;;;;;4961767;28;37349;-81
2023/12/14 02:10:36;;;;;;;23.03;16.33;;;7.00;99.90;;;;;;4974054;28;38879;-81
2023/12/14 02:13:04;;;;;;;23.10;15.40;;;7.00;99.90;;;;;;4970954;28;39320;-81
2023/12/14 02:15:30;;;;;;;25.80;16.50;;;7.00;99.90;;;;;;5006101;23;38770;-81
2023/12/14 02:17:56;;;;;;;25.80;16.20;;;7.00;99.90;;;;;;4949396;28;38307;-81
2023/12/14 02:20:29;;;;;;;23.07;15.50;;;6.90;99.90;;;;;;4968185;28;39521;-81
2023/12/14 02:22:58;;;;;;;21.95;15.30;;;6.90;99.90;;;;;;4957060;28;38580;-81
2023/12/14 02:25:24;;;;;;;21.57;14.47;;;6.90;99.90;;;;;;4968420;28;39076;-82
2023/12/14 02:27:53;;;;;;;25.67;15.80;;;6.90;99.90;;;;;;4956236;28;38071;-81
2023/12/14 02:30:22;;;;;;;24.77;15.03;;;6.90;99.90;;;;;;4966609;28;37665;-82
2023/12/14 02:33:02;;;;;;;23.07;15.43;;;7.00;99.90;;;;;;4976216;28;39643;-81
2023/12/14 02:35:31;;;;;;;23.07;14.13;;;7.00;99.90;;;;;;4953024;28;47033;-81
2023/12/14 02:37:57;;;;;;;21.07;15.20;;;6.90;99.90;;;;;;4948163;28;38540;-80
2023/12/14 02:40:30;;;;;;;22.87;13.83;;;6.90;99.90;;;;;;4956785;28;37584;-81
2023/12/14 02:42:57;;;;;;;20.53;13.63;;;6.90;99.90;;;;;;4975367;28;37608;-82
2023/12/14 02:45:23;;;;;;;25.43;15.57;;;6.90;99.90;;;;;;4968891;28;38784;-81
2023/12/14 02:48:03;;;;;;;28.07;15.87;;;7.00;99.90;;;;;;4960359;28;40427;-81
2023/12/14 02:50:29;;;;;;;23.77;15.43;;;7.00;99.90;;;;;;4977706;28;50094;-82
2023/12/14 02:52:55;;;;;;;26.77;14.53;;;7.00;99.90;;;;;;4965424;28;39175;-82
2023/12/14 02:55:21;;;;;;;25.70;15.93;;;7.00;99.90;;;;;;4957216;28;38933;-81
2023/12/14 02:57:47;;;;;;;23.83;14.43;;;7.00;99.90;;;;;;4958407;28;38336;-80
2023/12/14 03:00:14;;;;;;;28.13;14.93;;;7.00;99.90;;;;;;4960505;28;39985;-80
2023/12/14 03:02:40;;;;;;;27.27;15.73;;;7.00;99.90;;;;;;4959423;28;38948;-81
2023/12/14 03:05:14;;;;;;;24.13;14.37;;;7.00;99.90;;;;;;4959192;28;37555;-81
2023/12/14 03:07:40;;;;;;;23.43;15.53;;;6.90;99.90;;;;;;4961395;28;38676;-81
2023/12/14 03:10:12;;;;;;;22.97;14.73;;;7.00;99.90;;;;;;4961283;28;37430;-81
2023/12/14 03:12:42;;;;;;;24.02;15.07;;;6.90;99.90;;;;;;4979576;28;40333;-81
2023/12/14 03:15:08;;;;;;;22.70;14.20;;;6.90;99.90;;;;;;4955209;28;39076;-81
2023/12/14 03:17:34;;;;;;;23.80;14.40;;;6.90;99.90;;;;;;4970409;28;39105;-81
2023/12/14 03:20:01;;;;;;;25.13;14.60;;;6.90;99.90;;;;;;4959026;28;37748;-81
2023/12/14 03:22:27;;;;;;;24.33;13.00;;;6.90;99.90;;;;;;4955018;28;38683;-80
2023/12/14 03:25:00;;;;;;;23.80;13.13;;;6.90;99.90;;;;;;4973953;28;40312;-81
2023/12/14 03:27:26;;;;;;;20.97;12.53;;;6.90;99.90;;;;;;4955450;28;37134;-81
2023/12/14 03:30:00;;;;;;;24.17;13.00;;;6.90;99.90;;;;;;4955868;28;37495;-81
2023/12/14 03:32:27;;;;;;;21.03;13.13;;;6.90;99.90;;;;;;4961747;28;40467;-81
2023/12/14 03:34:59;;;;;;;18.63;11.70;;;6.90;99.90;;;;;;4972922;28;39975;-80
2023/12/14 03:37:25;;;;;;;18.77;11.95;;;6.90;99.90;;;;;;4967854;28;40098;-81
2023/12/14 03:39:53;;;;;;;21.90;13.03;;;6.90;99.90;;;;;;4973639;28;38002;-81
2023/12/14 03:42:19;;;;;;;21.00;12.20;;;6.90;99.90;;;;;;4957310;28;38924;-81
2023/12/14 03:44:45;;;;;;;23.57;13.53;;;6.90;99.90;;;;;;4954054;28;37130;-81
2023/12/14 03:47:23;;;;;;;21.30;12.50;;;6.90;99.90;;;;;;4952255;28;38390;-81
2023/12/14 03:49:49;;;;;;;19.77;12.53;;;6.90;99.90;;;;;;4957647;28;39386;-80
2023/12/14 03:52:15;;;;;;;20.23;13.10;;;6.90;99.90;;;;;;4949059;28;38555;-80
2023/12/14 03:54:44;;;;;;;22.13;12.23;;;6.90;99.90;;;;;;4951133;28;38541;-81
2023/12/14 03:57:10;;;;;;;21.10;13.37;;;6.90;99.90;;;;;;4966903;28;38728;-80
2023/12/14 03:59:40;;;;;;;26.10;12.97;;;6.80;99.90;;;;;;4967029;28;37587;-80
2023/12/14 04:02:06;;;;;;;22.57;12.07;;;6.90;99.90;;;;;;4941114;28;38538;-81
2023/12/14 04:04:33;;;;;;;20.57;12.37;;;6.80;99.90;;;;;;4944236;28;37912;-81
2023/12/14 04:06:59;;;;;;;26.03;13.40;;;6.80;99.90;;;;;;4945581;28;37810;-80
2023/12/14 04:09:25;;;;;;;22.83;12.53;;;6.80;99.90;;;;;;4960536;28;37981;-81
2023/12/14 04:11:51;;;;;;;24.80;12.87;;;6.80;99.90;;;;;;4952614;28;37452;-81
2023/12/14 04:14:17;;;;;;;25.03;13.10;;;6.80;99.90;;;;;;4944254;28;40626;-81
2023/12/14 04:16:44;;;;;;;24.73;12.30;;;6.80;99.90;;;;;;4954191;28;38767;-81
2023/12/14 04:19:10;;;;;;;23.67;13.00;;;6.80;99.90;;;;;;4972373;28;37390;-82
2023/12/14 04:21:36;;;;;;;26.43;12.43;;;6.80;99.90;;;;;;4973890;28;39240;-81
2023/12/14 04:24:03;;;;;;;21.80;12.00;;;6.80;99.90;;;;;;4958132;28;37595;-81
2023/12/14 04:26:31;;;;;;;22.53;12.50;;;6.80;99.90;;;;;;4969404;28;39241;-81
2023/12/14 04:28:58;;;;;;;23.70;12.30;;;6.80;99.90;;;;;;4957350;28;37313;-81
2023/12/14 04:31:24;;;;;;;21.20;12.17;;;6.80;99.90;;;;;;4955788;28;38747;-82
2023/12/14 04:34:20;;;;;;;28.30;12.60;;;6.80;99.90;;;;;;4951764;28;38896;-81
2023/12/14 04:36:46;;;;;;;19.57;12.20;;;6.80;99.90;;;;;;4955520;28;47456;-81
2023/12/14 04:39:14;;;;;;;23.43;10.93;;;6.80;99.90;;;;;;4953477;28;37754;-82
2023/12/14 04:41:40;;;;;;;20.03;11.33;;;6.80;99.90;;;;;;4956517;28;38704;-82
2023/12/14 04:44:06;;;;;;;23.63;11.27;;;6.80;99.90;;;;;;4984721;28;39946;-81
2023/12/14 04:46:32;;;;;;;23.73;10.77;;;6.80;99.90;;;;;;4989489;28;41138;-82
2023/12/14 04:48:58;;;;;;;21.87;10.37;;;6.80;99.90;;;;;;4976230;28;37443;-80
2023/12/14 04:51:26;;;;;;;19.53;10.73;;;6.80;99.90;;;;;;4984704;28;40259;-81
2023/12/14 04:53:52;;;;;;;22.03;10.47;;;6.80;99.90;;;;;;4963976;28;40874;-82
2023/12/14 04:56:21;;;;;;;20.40;10.33;;;6.80;99.90;;;;;;4977092;28;39956;-81
2023/12/14 04:58:47;;;;;;;17.50;9.77;;;6.80;99.90;;;;;;4961137;28;38784;-82
2023/12/14 05:01:13;;;;;;;25.00;10.30;;;6.80;99.90;;;;;;4961738;28;38908;-82
2023/12/14 05:03:44;;;;;;;22.43;10.37;;;6.80;99.90;;;;;;4992142;28;37726;-82
2023/12/14 05:06:12;;;;;;;16.20;9.37;;;6.80;99.90;;;;;;4977831;28;38429;-81
2023/12/14 05:08:38;;;;;;;20.13;8.87;;;6.80;99.90;;;;;;4975485;28;36765;-82
2023/12/14 05:11:04;;;;;;;15.03;8.93;;;6.80;99.90;;;;;;4979343;28;37851;-82
2023/12/14 05:13:31;;;;;;;13.90;7.70;;;6.80;99.90;;;;;;4976733;28;38623;-82
2023/12/14 05:16:30;;;;;;;14.77;8.30;;;6.80;99.90;;;;;;4978850;28;38618;-82
2023/12/14 05:18:59;;;;;;;16.23;8.13;;;6.80;99.90;;;;;;4961459;28;48095;-81
2023/12/14 05:21:25;;;;;;;14.37;8.27;;;6.80;99.90;;;;;;4993234;28;38714;-82
2023/12/14 05:23:51;;;;;;;16.57;8.27;;;6.90;99.90;;;;;;4995697;28;39781;-81
2023/12/14 05:26:17;;;;;;;19.20;8.17;;;6.80;99.90;;;;;;4979070;28;38620;-82
2023/12/14 05:28:44;;;;;;;14.37;8.07;;;6.80;99.90;;;;;;4987152;28;38608;-81
2023/12/14 05:31:10;;;;;;;14.93;8.47;;;6.80;99.90;;;;;;4964448;28;39396;-81
2023/12/14 05:33:37;;;;;;;14.13;7.20;;;6.80;99.90;;;;;;4965468;28;37747;-81
2023/12/14 05:36:08;;;;;;;18.73;7.23;;;6.80;99.90;;;;;;4979573;28;39294;-80
2023/12/14 05:38:38;;;;;;;17.70;7.53;;;6.70;99.90;;;;;;4990831;28;36351;-81
2023/12/14 05:41:14;;;;;;;19.47;7.80;;;6.60;99.90;;;;;;4972640;28;38154;-81
2023/12/14 05:43:40;;;;;;;17.33;8.37;;;6.50;99.90;;;;;;4968236;28;39882;-81
2023/12/14 05:46:06;;;;;;;14.80;6.97;;;6.40;99.90;;;;;;4988702;28;38811;-81
2023/12/14 05:48:32;;;;;;;13.73;7.73;;;6.30;99.90;;;;;;4987282;28;37586;-81
2023/12/14 05:51:01;;;;;;;20.63;8.83;;;6.20;99.90;;;;;;4972802;28;38109;-81
2023/12/14 05:53:27;;;;;;;17.30;7.73;;;6.10;99.90;;;;;;4987575;28;47370;-81
2023/12/14 05:55:53;;;;;;;15.23;7.60;;;6.00;99.90;;;;;;4985491;28;38393;-79
2023/12/14 05:58:19;;;;;;;16.83;7.67;;;6.00;99.90;;;;;;4991055;28;37453;-81
2023/12/14 06:00:46;;;;;;;17.63;7.90;;;6.10;99.90;;;;;;4966028;28;37847;-81
2023/12/14 06:03:12;;;;;;;19.03;7.87;;;6.00;99.90;;;;;;4968904;28;37794;-81
2023/12/14 06:05:38;;;;;;;15.53;8.27;;;6.00;99.90;;;;;;4972060;28;39119;-81
2023/12/14 06:08:05;;;;;;;10.93;6.73;;;6.00;99.90;;;;;;4965953;28;38068;-81
2023/12/14 06:10:32;;;;;;;12.03;7.30;;;6.00;99.90;;;;;;4968294;28;37801;-81
2023/12/14 06:12:58;;;;;;;15.90;8.07;;;6.00;99.90;;;;;;4964977;28;38192;-80
2023/12/14 06:15:25;;;;;;;15.10;7.67;;;5.90;99.90;;;;;;4963346;28;39950;-81
2023/12/14 06:17:51;;;;;;;15.50;8.27;;;5.80;99.90;;;;;;4982037;28;37216;-80
2023/12/14 06:20:17;;;;;;;16.70;8.27;;;5.80;99.90;;;;;;4982807;28;39755;-82
2023/12/14 06:22:43;;;;;;;15.13;8.90;;;5.80;99.90;;;;;;4971533;28;38653;-81
2023/12/14 06:25:09;;;;;;;20.60;10.40;;;5.80;99.90;;;;;;4986246;28;38579;-81
2023/12/14 06:27:35;;;;;;;16.70;9.30;;;5.80;99.90;;;;;;4952631;28;36154;-81
2023/12/14 06:30:02;;;;;;;20.03;10.40;;;5.80;99.90;;;;;;4964854;28;40254;-81
2023/12/14 06:32:29;;;;;;;13.20;9.20;;;5.70;99.90;;;;;;4981400;28;39624;-80
2023/12/14 06:34:55;;;;;;;15.37;9.27;;;5.70;99.90;;;;;;4957874;28;37483;-80
2023/12/14 06:37:21;;;;;;;14.20;9.63;;;5.70;99.90;;;;;;4951215;28;36942;-81
2023/12/14 06:39:47;;;;;;;19.13;10.77;;;5.60;99.90;;;;;;4950359;28;39722;-81
2023/12/14 06:42:13;;;;;;;18.03;10.70;;;5.70;99.90;;;;;;4965592;28;38950;-80
2023/12/14 06:44:39;;;;;;;26.13;11.83;;;5.60;99.90;;;;;;4957752;28;38429;-81
2023/12/14 06:47:07;;;;;;;17.37;12.20;;;5.60;99.90;;;;;;4965215;28;37387;-80
2023/12/14 06:49:33;;;;;;;17.33;10.73;;;5.70;99.90;;;;;;4971134;28;38273;-80
2023/12/14 06:51:59;;;;;;;19.07;11.53;;;5.60;99.90;;;;;;4959338;28;39036;-80
2023/12/14 06:54:26;;;;;;;21.80;11.87;;;5.60;99.90;;;;;;4959401;28;37299;-81
2023/12/14 06:56:52;;;;;;;24.33;13.10;;;5.60;99.90;;;;;;4976580;28;38554;-81
2023/12/14 06:59:18;;;;;;;18.70;13.13;;;5.60;99.90;;;;;;4971740;28;39057;-81
2023/12/14 07:01:44;;;;;;;19.97;12.23;;;5.50;99.90;;;;;;4954645;28;37787;-80
2023/12/14 07:04:10;;;;;;;19.33;12.33;;;5.50;99.90;;;;;;4953610;28;39647;-81
2023/12/14 07:06:36;;;;;;;23.40;12.63;;;5.40;99.90;;;;;;4976060;28;37126;-81
2023/12/14 07:09:05;;;;;;;20.83;13.17;;;5.40;99.90;;;;;;4968030;28;37060;-81
2023/12/14 07:11:51;;;;;;;20.93;12.77;;;5.40;99.90;;;;;;4971631;28;39669;-81
2023/12/14 07:14:17;;;;;;;25.40;12.53;;;5.40;99.90;;;;;;4970514;28;38438;-81
2023/12/14 07:16:44;;;;;;;24.23;13.80;;;5.30;99.90;;;;;;4964652;28;37619;-81
2023/12/14 07:19:13;;;;;;;17.47;11.67;;;5.30;99.90;;;;;;4969596;28;37557;-81
2023/12/14 07:21:39;;;;;;;23.63;12.00;;;5.20;99.90;;;;;;4966044;28;39433;-81
2023/12/14 07:24:06;;;;;;;18.93;11.37;;;5.10;99.90;;;;;;4958990;28;38581;-80
2023/12/14 07:26:32;;;;;;;18.30;13.07;;;5.10;99.90;;;;;;4947011;28;37702;-79
2023/12/14 07:28:58;;;;;;;18.63;10.73;;;5.00;99.90;;;;;;4932668;28;38773;-79
2023/12/14 07:31:24;;;;;;;16.53;11.43;;;5.00;99.90;;;;;;4930482;28;37546;-78
2023/12/14 07:33:50;;;;;;;21.60;12.90;;;4.90;99.90;;;;;;4951670;28;39157;-78
2023/12/14 07:36:16;;;;;;;22.73;12.53;;;4.90;99.90;;;;;;4932965;28;37572;-78
2023/12/14 07:38:42;;;;;;;20.17;13.40;;;4.90;99.90;;;;;;4930552;28;38848;-78
2023/12/14 07:41:09;;;;;;;20.73;12.20;;;4.80;99.90;;;;;;4927897;28;40049;-77
2023/12/14 07:43:35;;;;;;;15.90;11.60;;;4.70;99.90;;;;;;4928539;28;37388;-78
2023/12/14 07:46:01;;;;;;;21.20;12.37;;;4.70;99.90;;;;;;4924924;28;36243;-79
2023/12/14 07:48:31;;;;;;;27.90;13.13;;;4.70;99.90;;;;;;4930378;28;47032;-78
2023/12/14 07:50:57;;;;;;;28.37;13.90;;;4.60;99.90;;;;;;4932496;28;41006;-78
2023/12/14 07:53:25;;;;;;;33.53;14.13;;;4.60;99.90;;;;;;4931326;28;37816;-78
2023/12/14 07:55:51;;;;;;;26.90;13.33;;;4.60;99.90;;;;;;4933042;28;37543;-78
2023/12/14 07:58:17;;;;;;;25.63;14.23;;;4.60;99.90;;;;;;4931505;28;38405;-78
2023/12/14 08:00:43;;;;;;;27.90;13.67;;;4.60;99.90;;;;;;4932877;28;40488;-77
2023/12/14 08:03:09;;;;;;;23.47;14.00;;;4.50;99.90;;;;;;4932173;28;37328;-78
2023/12/14 08:05:35;;;;;;;27.43;13.30;;;4.50;99.90;;;;;;4932518;28;38722;-78
2023/12/14 08:08:02;;;;;;;24.97;14.70;;;4.40;99.90;;;;;;4953374;28;38006;-77
2023/12/14 08:10:28;;;;;;;24.83;14.83;;;4.50;99.90;;;;;;4934771;28;38544;-78
2023/12/14 08:12:54;;;;;;;24.57;15.53;;;4.50;99.90;;;;;;4937188;28;37801;-78
2023/12/14 08:15:20;;;;;;;30.17;17.03;;;4.40;99.90;;;;;;4930202;28;37687;-78
2023/12/14 08:17:46;;;;;;;27.77;15.60;;;4.40;99.90;;;;;;4932131;28;39038;-78
2023/12/14 08:20:13;;;;;;;29.03;15.37;;;4.50;99.90;;;;;;4932124;28;38346;-77
2023/12/14 08:22:44;;;;;;;26.40;16.33;;;4.50;99.90;;;;;;4923193;28;37416;-76
2023/12/14 08:25:17;;;;;;;23.37;15.10;;;4.60;99.90;;;;;;4933746;28;36531;-77
2023/12/14 08:27:43;;;;;;;27.60;15.43;;;4.70;99.90;;;;;;4950220;28;39868;-78
2023/12/14 08:30:11;;;;;;;22.27;14.87;;;4.70;99.90;;;;;;4934162;28;39517;-77
2023/12/14 08:32:38;;;;;;;28.30;16.30;;;4.70;99.90;;;;;;4937244;28;38430;-78
2023/12/14 08:35:04;;;;;;;29.63;16.53;;;4.80;99.90;;;;;;4933745;28;37341;-78
2023/12/14 08:37:30;;;;;;;24.80;16.57;;;4.90;99.90;;;;;;4934385;28;46521;-78
2023/12/14 08:39:57;;;;;;;26.43;15.20;;;5.00;99.90;;;;;;4952597;28;38871;-78
2023/12/14 08:42:23;;;;;;;27.60;17.20;;;5.10;99.90;;;;;;4932242;28;40103;-78
2023/12/14 08:44:49;;;;;;;28.17;17.87;;;5.20;99.90;;;;;;4935684;28;37747;-78
2023/12/14 08:47:16;;;;;;;23.70;14.83;;;5.30;99.90;;;;;;4952696;28;38845;-77
2023/12/14 08:49:42;;;;;;;24.90;15.23;;;5.40;99.90;;;;;;4936483;28;39501;-78
2023/12/14 08:52:10;;;;;;;32.03;17.87;;;5.50;99.90;;;;;;4952703;28;38713;-78
2023/12/14 08:54:36;;;;;;;24.00;14.97;;;5.50;99.90;;;;;;4930080;28;38443;-78
2023/12/14 08:57:02;;;;;;;25.67;15.97;;;5.60;99.90;;;;;;4929515;28;40171;-77
2023/12/14 08:59:28;;;;;;;27.50;15.47;;;5.60;99.90;;;;;;4948340;28;39131;-78
2023/12/14 09:01:55;;;;;;;26.37;15.30;;;5.70;99.90;;;;;;4931342;28;39162;-77
2023/12/14 09:04:21;;;;;;;23.97;13.80;;;5.70;99.90;;;;;;4929904;28;37538;-78
2023/12/14 09:06:47;;;;;;;22.13;14.10;;;5.70;99.90;;;;;;4945619;28;39083;-78
2023/12/14 09:09:13;;;;;;;20.17;12.83;;;5.60;99.90;;;;;;4928345;28;39235;-78
2023/12/14 09:11:40;;;;;;;18.83;12.93;;;5.70;99.90;;;;;;4942805;28;38604;-78
2023/12/14 09:14:06;;;;;;;21.67;13.60;;;5.70;99.90;;;;;;4925706;28;37471;-79
2023/12/14 09:16:32;;;;;;;23.77;12.80;;;5.80;99.90;;;;;;4925881;28;39532;-78
2023/12/14 09:18:58;;;;;;;23.73;13.63;;;5.80;99.90;;;;;;4946787;28;38692;-78
2023/12/14 09:21:25;;;;;;;24.30;13.33;;;5.80;99.90;;;;;;4926472;28;39594;-78
2023/12/14 09:23:53;;;;;;;21.30;13.13;;;5.80;99.90;;;;;;4946461;28;37007;-77
2023/12/14 09:26:19;;;;;;;21.33;13.87;;;5.90;99.90;;;;;;4924675;28;41606;-78
2023/12/14 09:28:45;;;;;;;21.60;13.70;;;5.90;99.90;;;;;;4927988;28;38729;-78
2023/12/14 09:31:12;;;;;;;20.53;13.30;;;5.90;99.90;;;;;;4934799;28;38838;-77
2023/12/14 09:33:38;;;;;;;22.73;13.17;;;6.00;99.90;;;;;;4928366;28;38207;-78
2023/12/14 09:36:04;;;;;;;26.27;14.10;;;6.00;99.90;;;;;;4931989;28;37879;-78
2023/12/14 09:38:30;;;;;;;19.57;13.20;;;6.00;99.90;;;;;;4950682;28;39025;-79
2023/12/14 09:40:57;;;;;;;18.47;11.93;;;6.00;99.90;;;;;;4933140;28;39578;-80
2023/12/14 09:43:23;;;;;;;20.33;12.37;;;6.00;99.90;;;;;;4949320;28;37171;-78
2023/12/14 09:45:50;;;;;;;21.73;13.20;;;6.00;99.90;;;;;;4946560;28;38189;-78
2023/12/14 09:48:16;;;;;;;21.13;13.67;;;6.00;99.90;;;;;;4928764;28;37747;-79
2023/12/14 09:50:44;;;;;;;22.70;13.87;;;6.00;99.90;;;;;;4947723;28;39092;-78
2023/12/14 09:53:10;;;;;;;18.80;13.10;;;6.10;99.90;;;;;;4923912;28;37734;-78
2023/12/14 09:55:36;;;;;;;18.80;13.47;;;6.20;99.90;;;;;;4941604;28;38804;-79
2023/12/14 09:58:03;;;;;;;22.23;14.20;;;6.30;99.90;;;;;;4941274;28;40096;-78
2023/12/14 10:00:40;;;;;;;19.53;13.13;;;6.40;99.90;;;;;;4927533;28;47396;-79
2023/12/14 10:03:32;;;;;;;18.83;13.33;;;6.60;99.90;;;;;;4919537;28;38242;-79
2023/12/14 10:06:01;;;;;;;24.52;12.95;;;6.70;99.90;;;;;;4940621;28;39295;-78
2023/12/14 10:08:27;;;;;;;24.00;13.13;;;6.70;99.90;;;;;;4929611;28;47215;-79
2023/12/14 10:10:55;;;;;;;19.60;12.57;;;6.80;99.90;;;;;;4923207;28;38924;-78
2023/12/14 10:13:42;;;;;;;17.10;12.57;;;6.90;99.90;;;;;;4944743;28;38039;-79
2023/12/14 10:16:09;;;;;;;19.10;12.03;;;6.90;99.90;;;;;;4945357;28;39408;-78
2023/12/14 10:18:36;;;;;;;17.30;11.47;;;6.90;99.90;;;;;;4929536;28;40298;-79
2023/12/14 10:21:02;;;;;;;16.27;12.37;;;6.90;99.90;;;;;;4930204;28;38913;-78
2023/12/14 10:23:29;;;;;;;20.73;12.23;;;7.00;99.90;;;;;;4952952;28;37134;-78
2023/12/14 10:25:55;;;;;;;18.67;11.93;;;7.10;99.90;;;;;;4934893;28;39497;-78
2023/12/14 10:28:22;;;;;;;18.83;12.00;;;7.20;99.90;;;;;;4932987;28;41074;-78
2023/12/14 10:30:49;;;;;;;18.47;11.77;;;7.20;99.90;;;;;;4934505;28;40406;-78
2023/12/14 10:33:16;;;;;;;14.93;10.67;;;7.20;99.90;;;;;;4932725;28;38438;-79
2023/12/14 10:35:43;;;;;;;17.10;11.40;;;7.20;99.90;;;;;;4949761;28;38597;-78
2023/12/14 10:38:11;;;;;;;15.83;9.80;;;7.40;99.90;;;;;;4928966;28;39223;-78
2023/12/14 10:40:41;;;;;;;20.40;11.60;;;7.50;99.90;;;;;;4943561;28;39695;-79
2023/12/14 10:43:07;;;;;;;18.13;11.40;;;7.60;99.90;;;;;;4947657;28;37256;-78
2023/12/14 10:45:34;;;;;;;14.17;10.17;;;7.50;99.90;;;;;;4928922;28;39434;-79
2023/12/14 10:48:01;;;;;;;14.63;9.63;;;7.60;99.90;;;;;;4929100;28;39763;-78
2023/12/14 10:50:31;;;;;;;17.90;10.43;;;7.60;99.90;;;;;;4928598;28;46737;-78
2023/12/14 10:52:58;;;;;;;19.83;10.47;;;7.60;99.90;;;;;;4945259;28;38191;-79
2023/12/14 10:55:47;;;;;;;15.47;9.50;;;7.60;99.90;;;;;;4929026;28;39068;-79
2023/12/14 10:58:14;;;;;;;11.57;9.00;;;7.60;99.90;;;;;;4944420;28;38313;-79
2023/12/14 11:00:42;;;;;;;14.73;10.17;;;7.60;99.90;;;;;;4930533;28;39842;-79
2023/12/14 11:03:13;;;;;;;16.33;9.87;;;7.70;99.90;;;;;;4946948;28;38196;-78
2023/12/14 11:05:39;;;;;;;13.50;8.53;;;7.70;99.90;;;;;;4929961;28;40558;-79
2023/12/14 11:08:09;;;;;;;18.90;9.93;;;7.60;99.90;;;;;;4931696;28;39450;-79
2023/12/14 11:10:46;;;;;;;12.10;8.60;;;7.50;99.90;;;;;;4946895;28;37971;-80
2023/12/14 11:13:14;;;;;;;14.00;9.60;;;7.50;99.90;;;;;;4945564;28;36828;-78
2023/12/14 11:15:45;;;;;;;16.17;8.47;;;7.50;99.90;;;;;;4928372;28;36934;-79
2023/12/14 11:18:11;;;;;;;14.43;8.37;;;7.60;99.90;;;;;;4926997;28;39385;-78
2023/12/14 11:20:57;;;;;;;13.47;8.40;;;7.60;99.90;;;;;;4945888;28;39284;-79
2023/12/14 11:23:31;;;;;;;13.80;8.83;;;7.70;99.90;;;;;;4929381;28;37268;-79
2023/12/14 11:25:59;;;;;;;13.87;8.97;;;7.70;99.90;;;;;;4930274;28;40526;-79
2023/12/14 11:28:27;;;;;;;13.60;9.50;;;7.60;99.90;;;;;;4930233;28;40466;-79
2023/12/14 11:30:54;;;;;;;14.87;9.10;;;7.50;99.90;;;;;;4947564;28;39250;-79
2023/12/14 11:33:20;;;;;;;15.27;9.00;;;7.50;99.90;;;;;;4929681;28;36677;-79
2023/12/14 11:35:46;;;;;;;14.00;9.30;;;7.50;99.90;;;;;;4930257;28;37528;-79
2023/12/14 11:38:13;;;;;;;12.93;8.90;;;7.50;99.90;;;;;;4929751;28;40408;-78
2023/12/14 11:40:40;;;;;;;13.27;9.30;;;7.50;99.90;;;;;;4949078;28;39218;-79
2023/12/14 11:43:09;;;;;;;14.63;10.20;;;7.50;99.90;;;;;;4928905;28;38200;-79
2023/12/14 11:45:37;;;;;;;16.93;9.80;;;7.40;99.90;;;;;;4932327;28;36341;-79
2023/12/14 11:48:05;;;;;;;16.80;9.33;;;7.40;99.90;;;;;;4948721;28;39545;-78
2023/12/14 11:50:34;;;;;;;14.97;9.67;;;7.50;99.90;;;;;;4933701;28;37626;-79
2023/12/14 11:53:03;;;;;;;15.10;9.03;;;7.50;99.90;;;;;;4949695;28;36981;-79
2023/12/14 11:55:30;;;;;;;17.10;8.80;;;7.40;99.90;;;;;;4931462;28;47413;-80
2023/12/14 11:57:58;;;;;;;11.80;8.33;;;7.50;99.90;;;;;;4930564;28;37602;-78
2023/12/14 12:00:25;;;;;;;14.63;8.03;;;7.60;99.90;;;;;;4931793;28;38868;-80
2023/12/14 12:02:52;;;;;;;15.57;7.83;;;7.50;99.90;;;;;;4951186;28;37284;-79
2023/12/14 12:05:19;;;;;;;13.70;8.17;;;7.60;99.90;;;;;;4933020;28;39589;-79
2023/12/14 12:07:45;;;;;;;10.10;8.03;;;7.50;99.90;;;;;;4955505;28;37326;-79
2023/12/14 12:10:12;;;;;;;14.37;7.63;;;7.60;99.90;;;;;;4955728;28;38297;-79
2023/12/14 12:12:38;;;;;;;13.23;8.20;;;7.50;99.90;;;;;;4953202;28;37716;-79
2023/12/14 12:15:05;;;;;;;15.97;7.47;;;7.60;99.90;;;;;;4933457;28;37754;-80
2023/12/14 12:17:37;;;;;;;13.23;6.70;;;7.70;99.90;;;;;;4953382;28;48901;-80
2023/12/14 12:20:06;;;;;;;17.52;8.02;;;7.60;99.90;;;;;;4935228;28;38253;-79
2023/12/14 12:22:33;;;;;;;12.60;7.03;;;7.50;99.90;;;;;;4936319;28;47586;-80
2023/12/14 12:25:00;;;;;;;11.67;7.27;;;7.50;99.90;;;;;;4937054;28;40046;-79
2023/12/14 12:27:26;;;;;;;14.40;8.17;;;7.50;99.90;;;;;;4935043;28;39148;-79
2023/12/14 12:29:54;;;;;;;15.00;8.53;;;7.50;99.90;;;;;;4952925;28;38364;-78
2023/12/14 12:32:20;;;;;;;15.93;10.13;;;7.50;99.90;;;;;;4949035;28;37590;-78
2023/12/14 12:34:46;;;;;;;12.23;8.70;;;7.50;99.90;;;;;;4930290;28;43806;-79
2023/12/14 12:37:12;;;;;;;11.93;8.20;;;7.50;99.90;;;;;;4925493;28;39024;-79
2023/12/14 12:39:39;;;;;;;12.97;8.43;;;7.50;99.90;;;;;;4932342;28;39935;-79
2023/12/14 12:42:05;;;;;;;13.90;9.27;;;7.50;99.90;;;;;;4948963;28;37456;-79
2023/12/14 12:44:31;;;;;;;16.07;8.47;;;7.50;99.90;;;;;;4925432;28;39016;-79